sensor_id;sensor_type;location;lat;lon;timestamp;pressure;altitude;pressure_sealevel;temperature;humidity
40998;BME280;26740;45.944;12.480;2024-03-06T00:01:41;100941.44;;;10.12;100.00
40998;BME280;26740;45.944;12.480;2024-03-06T00:04:07;100946.50;;;10.15;100.00
40998;BME280;26740;45.944;12.480;2024-03-06T00:06:32;100945.59;;;10.27;100.00
40998;BME280;26740;45.944;12.480;2024-03-06T00:08:58;100947.53;;;10.26;100.00
40998;BME280;26740;45.944;12.480;2024-03-06T00:11:24;100935.50;;;10.20;100.00
40998;BME280;26740;45.944;12.480;2024-03-06T00:13:50;100938.16;;;10.15;100.00
40998;BME280;26740;45.944;12.480;2024-03-06T00:16:16;100944.41;;;10.22;100.00
40998;BME280;26740;45.944;12.480;2024-03-06T00:18:42;100938.78;;;10.05;100.00
40998;BME280;26740;45.944;12.480;2024-03-06T00:21:07;100942.53;;;10.11;100.00
40998;BME280;26740;45.944;12.480;2024-03-06T00:23:35;100940.19;;;10.20;100.00
40998;BME280;26740;45.944;12.480;2024-03-06T00:26:00;100943.38;;;10.12;100.00
40998;BME280;26740;45.944;12.480;2024-03-06T00:28:27;100942.94;;;10.20;100.00
40998;BME280;26740;45.944;12.480;2024-03-06T00:30:53;100937.75;;;10.23;100.00
40998;BME280;26740;45.944;12.480;2024-03-06T00:33:18;100939.53;;;10.30;100.00
40998;BME280;26740;45.944;12.480;2024-03-06T00:35:44;100947.41;;;10.33;100.00
40998;BME280;26740;45.944;12.480;2024-03-06T00:38:09;100946.94;;;10.24;100.00
40998;BME280;26740;45.944;12.480;2024-03-06T00:40:35;100945.59;;;10.27;100.00
40998;BME280;26740;45.944;12.480;2024-03-06T00:43:01;100947.44;;;10.21;100.00
40998;BME280;26740;45.944;12.480;2024-03-06T00:45:26;100945.47;;;10.21;100.00
40998;BME280;26740;45.944;12.480;2024-03-06T00:47:52;100936.66;;;10.24;100.00
40998;BME280;26740;45.944;12.480;2024-03-06T00:50:17;100936.66;;;10.24;100.00
40998;BME280;26740;45.944;12.480;2024-03-06T00:52:44;100933.06;;;10.24;100.00
40998;BME280;26740;45.944;12.480;2024-03-06T00:55:09;100942.72;;;10.21;100.00
40998;BME280;26740;45.944;12.480;2024-03-06T00:57:35;100940.53;;;10.23;100.00
40998;BME280;26740;45.944;12.480;2024-03-06T01:00:02;100941.63;;;10.22;100.00
40998;BME280;26740;45.944;12.480;2024-03-06T01:02:49;100948.16;;;10.16;100.00
40998;BME280;26740;45.944;12.480;2024-03-06T01:05:14;100944.31;;;10.17;100.00
40998;BME280;26740;45.944;12.480;2024-03-06T01:07:40;100945.66;;;10.15;100.00
40998;BME280;26740;45.944;12.480;2024-03-06T01:10:06;100941.91;;;10.09;100.00
40998;BME280;26740;45.944;12.480;2024-03-06T01:12:32;100939.34;;;10.19;100.00
40998;BME280;26740;45.944;12.480;2024-03-06T01:14:58;100953.88;;;10.10;100.00
40998;BME280;26740;45.944;12.480;2024-03-06T01:17:24;100948.09;;;10.11;100.00
40998;BME280;26740;45.944;12.480;2024-03-06T01:19:50;100947.31;;;10.16;100.00
40998;BME280;26740;45.944;12.480;2024-03-06T01:22:16;100950.09;;;10.16;100.00
40998;BME280;26740;45.944;12.480;2024-03-06T01:24:41;100948.31;;;10.10;100.00
40998;BME280;26740;45.944;12.480;2024-03-06T01:27:08;100947.09;;;10.17;100.00
40998;BME280;26740;45.944;12.480;2024-03-06T01:29:33;100957.78;;;10.25;100.00
40998;BME280;26740;45.944;12.480;2024-03-06T01:31:59;100957.25;;;10.12;100.00
40998;BME280;26740;45.944;12.480;2024-03-06T01:34:25;100955.44;;;10.05;100.00
40998;BME280;26740;45.944;12.480;2024-03-06T01:36:53;100954.13;;;10.08;100.00
40998;BME280;26740;45.944;12.480;2024-03-06T01:39:19;100949.75;;;10.12;100.00
40998;BME280;26740;45.944;12.480;2024-03-06T01:41:49;100944.69;;;10.09;100.00
40998;BME280;26740;45.944;12.480;2024-03-06T01:44:15;100945.38;;;10.16;100.00
40998;BME280;26740;45.944;12.480;2024-03-06T01:46:41;100949.13;;;10.22;100.00
40998;BME280;26740;45.944;12.480;2024-03-06T01:49:08;100939.84;;;10.16;100.00
40998;BME280;26740;45.944;12.480;2024-03-06T01:51:34;100944.41;;;10.22;100.00
40998;BME280;26740;45.944;12.480;2024-03-06T01:54:01;100944.19;;;10.12;100.00
40998;BME280;26740;45.944;12.480;2024-03-06T01:56:28;100938.06;;;10.10;100.00
40998;BME280;26740;45.944;12.480;2024-03-06T01:58:54;100943.25;;;10.06;100.00
40998;BME280;26740;45.944;12.480;2024-03-06T02:01:21;100935.28;;;10.10;100.00
40998;BME280;26740;45.944;12.480;2024-03-06T02:03:47;100936.97;;;10.11;100.00
40998;BME280;26740;45.944;12.480;2024-03-06T02:06:14;100940.84;;;10.10;100.00
40998;BME280;26740;45.944;12.480;2024-03-06T02:08:40;100933.94;;;10.13;100.00
40998;BME280;26740;45.944;12.480;2024-03-06T02:11:06;100935.41;;;10.15;100.00
40998;BME280;26740;45.944;12.480;2024-03-06T02:13:33;100938.47;;;10.31;100.00
40998;BME280;26740;45.944;12.480;2024-03-06T02:15:59;100923.72;;;10.30;100.00
40998;BME280;26740;45.944;12.480;2024-03-06T02:18:24;100928.25;;;10.19;100.00
40998;BME280;26740;45.944;12.480;2024-03-06T02:20:50;100935.97;;;10.17;100.00
40998;BME280;26740;45.944;12.480;2024-03-06T02:23:16;100943.91;;;10.25;100.00
40998;BME280;26740;45.944;12.480;2024-03-06T02:25:44;100928.81;;;10.33;100.00
40998;BME280;26740;45.944;12.480;2024-03-06T02:28:11;100931.09;;;10.36;100.00
40998;BME280;26740;45.944;12.480;2024-03-06T02:30:37;100934.97;;;10.35;100.00
40998;BME280;26740;45.944;12.480;2024-03-06T02:33:03;100929.19;;;10.25;100.00
40998;BME280;26740;45.944;12.480;2024-03-06T02:35:33;100930.78;;;10.21;100.00
40998;BME280;26740;45.944;12.480;2024-03-06T02:37:59;100936.22;;;10.16;100.00
40998;BME280;26740;45.944;12.480;2024-03-06T02:40:25;100934.91;;;10.18;100.00
40998;BME280;26740;45.944;12.480;2024-03-06T02:42:50;100932.47;;;10.22;100.00
40998;BME280;26740;45.944;12.480;2024-03-06T02:45:16;100927.66;;;10.17;100.00
40998;BME280;26740;45.944;12.480;2024-03-06T02:47:42;100927.06;;;10.15;100.00
40998;BME280;26740;45.944;12.480;2024-03-06T02:50:08;100930.91;;;10.14;100.00
40998;BME280;26740;45.944;12.480;2024-03-06T02:52:33;100926.13;;;10.10;100.00
40998;BME280;26740;45.944;12.480;2024-03-06T02:54:59;100922.59;;;10.14;100.00
40998;BME280;26740;45.944;12.480;2024-03-06T02:57:28;100932.03;;;10.13;100.00
40998;BME280;26740;45.944;12.480;2024-03-06T02:59:55;100938.06;;;10.10;100.00
40998;BME280;26740;45.944;12.480;2024-03-06T03:02:21;100939.75;;;10.11;100.00
40998;BME280;26740;45.944;12.480;2024-03-06T03:04:47;100939.25;;;10.14;100.00
40998;BME280;26740;45.944;12.480;2024-03-06T03:07:12;100934.28;;;10.16;100.00
40998;BME280;26740;45.944;12.480;2024-03-06T03:09:38;100926.97;;;10.10;100.00
40998;BME280;26740;45.944;12.480;2024-03-06T03:12:04;100931.03;;;10.19;100.00
40998;BME280;26740;45.944;12.480;2024-03-06T03:14:29;100923.28;;;10.21;100.00
40998;BME280;26740;45.944;12.480;2024-03-06T03:16:55;100923.75;;;10.01;100.00
40998;BME280;26740;45.944;12.480;2024-03-06T03:19:20;100929.44;;;9.95;100.00
40998;BME280;26740;45.944;12.480;2024-03-06T03:21:46;100927.13;;;9.92;100.00
40998;BME280;26740;45.944;12.480;2024-03-06T03:24:12;100927.91;;;9.87;100.00
40998;BME280;26740;45.944;12.480;2024-03-06T03:26:38;100929.22;;;9.84;100.00
40998;BME280;26740;45.944;12.480;2024-03-06T03:29:03;100920.78;;;9.79;100.00
40998;BME280;26740;45.944;12.480;2024-03-06T03:31:30;100922.13;;;9.77;100.00
40998;BME280;26740;45.944;12.480;2024-03-06T03:33:56;100922.84;;;9.84;100.00
40998;BME280;26740;45.944;12.480;2024-03-06T03:36:21;100928.13;;;9.85;100.00
40998;BME280;26740;45.944;12.480;2024-03-06T03:38:47;100925.97;;;9.76;100.00
40998;BME280;26740;45.944;12.480;2024-03-06T03:41:13;100929.38;;;9.78;100.00
40998;BME280;26740;45.944;12.480;2024-03-06T03:43:39;100926.94;;;9.81;100.00
40998;BME280;26740;45.944;12.480;2024-03-06T03:46:05;100921.88;;;9.78;100.00
40998;BME280;26740;45.944;12.480;2024-03-06T03:48:32;100923.22;;;9.76;100.00
40998;BME280;26740;45.944;12.480;2024-03-06T03:50:57;100932.03;;;9.73;100.00
40998;BME280;26740;45.944;12.480;2024-03-06T03:53:23;100929.50;;;9.71;100.00
40998;BME280;26740;45.944;12.480;2024-03-06T03:55:48;100922.75;;;9.67;100.00
40998;BME280;26740;45.944;12.480;2024-03-06T03:58:14;100927.22;;;9.68;100.00
40998;BME280;26740;45.944;12.480;2024-03-06T04:00:39;100928.44;;;9.60;100.00
40998;BME280;26740;45.944;12.480;2024-03-06T04:03:05;100930.34;;;9.60;100.00
40998;BME280;26740;45.944;12.480;2024-03-06T04:05:30;100936.31;;;9.52;100.00
40998;BME280;26740;45.944;12.480;2024-03-06T04:07:57;100937.13;;;9.52;100.00
40998;BME280;26740;45.944;12.480;2024-03-06T04:10:22;100931.34;;;9.54;100.00
40998;BME280;26740;45.944;12.480;2024-03-06T04:12:48;100934.00;;;9.60;100.00
40998;BME280;26740;45.944;12.480;2024-03-06T04:15:14;100930.13;;;9.61;100.00
40998;BME280;26740;45.944;12.480;2024-03-06T04:17:39;100938.69;;;9.60;100.00
40998;BME280;26740;45.944;12.480;2024-03-06T04:20:06;100936.41;;;9.57;100.00
40998;BME280;26740;45.944;12.480;2024-03-06T04:22:33;100940.25;;;9.56;100.00
40998;BME280;26740;45.944;12.480;2024-03-06T04:24:58;100935.19;;;9.53;100.00
40998;BME280;26740;45.944;12.480;2024-03-06T04:27:24;100940.88;;;9.46;100.00
40998;BME280;26740;45.944;12.480;2024-03-06T04:29:51;100945.56;;;9.45;100.00
40998;BME280;26740;45.944;12.480;2024-03-06T04:32:18;100946.09;;;9.42;100.00
40998;BME280;26740;45.944;12.480;2024-03-06T04:34:43;100953.88;;;9.45;100.00
40998;BME280;26740;45.944;12.480;2024-03-06T04:37:09;100949.28;;;9.51;100.00
40998;BME280;26740;45.944;12.480;2024-03-06T04:39:34;100952.94;;;9.52;100.00
40998;BME280;26740;45.944;12.480;2024-03-06T04:42:00;100951.81;;;9.53;100.00
40998;BME280;26740;45.944;12.480;2024-03-06T04:44:25;100954.72;;;9.58;100.00
40998;BME280;26740;45.944;12.480;2024-03-06T04:46:51;100962.31;;;9.62;100.00
40998;BME280;26740;45.944;12.480;2024-03-06T04:49:16;100967.50;;;9.59;100.00
40998;BME280;26740;45.944;12.480;2024-03-06T04:51:42;100968.34;;;9.59;100.00
40998;BME280;26740;45.944;12.480;2024-03-06T04:54:07;100969.78;;;9.62;100.00
40998;BME280;26740;45.944;12.480;2024-03-06T04:56:33;100966.66;;;9.58;100.00
40998;BME280;26740;45.944;12.480;2024-03-06T04:58:59;100973.88;;;9.59;100.00
40998;BME280;26740;45.944;12.480;2024-03-06T05:01:28;100971.47;;;9.63;100.00
40998;BME280;26740;45.944;12.480;2024-03-06T05:03:54;100983.16;;;9.65;100.00
40998;BME280;26740;45.944;12.480;2024-03-06T05:06:21;100977.00;;;9.63;100.00
40998;BME280;26740;45.944;12.480;2024-03-06T05:08:47;100980.63;;;9.63;100.00
40998;BME280;26740;45.944;12.480;2024-03-06T05:11:13;100981.97;;;9.61;100.00
40998;BME280;26740;45.944;12.480;2024-03-06T05:13:38;100989.78;;;9.64;100.00
40998;BME280;26740;45.944;12.480;2024-03-06T05:16:05;100983.66;;;9.62;100.00
40998;BME280;26740;45.944;12.480;2024-03-06T05:18:30;100981.47;;;9.64;100.00
40998;BME280;26740;45.944;12.480;2024-03-06T05:20:56;100988.22;;;9.68;100.00
40998;BME280;26740;45.944;12.480;2024-03-06T05:23:21;100989.03;;;9.68;100.00
40998;BME280;26740;45.944;12.480;2024-03-06T05:25:47;100986.28;;;9.68;100.00
40998;BME280;26740;45.944;12.480;2024-03-06T05:28:13;100988.81;;;9.70;100.00
40998;BME280;26740;45.944;12.480;2024-03-06T05:30:38;100991.00;;;9.68;100.00
40998;BME280;26740;45.944;12.480;2024-03-06T05:33:04;100995.94;;;9.66;100.00
40998;BME280;26740;45.944;12.480;2024-03-06T05:35:30;100988.56;;;9.60;100.00
40998;BME280;26740;45.944;12.480;2024-03-06T05:37:55;100994.63;;;9.57;100.00
40998;BME280;26740;45.944;12.480;2024-03-06T05:40:22;100993.28;;;9.59;100.00
40998;BME280;26740;45.944;12.480;2024-03-06T05:42:47;100996.28;;;9.58;100.00
40998;BME280;26740;45.944;12.480;2024-03-06T05:45:13;101001.84;;;9.58;100.00
40998;BME280;26740;45.944;12.480;2024-03-06T05:47:38;101001.13;;;9.51;100.00
40998;BME280;26740;45.944;12.480;2024-03-06T05:50:07;101006.56;;;9.69;100.00
40998;BME280;26740;45.944;12.480;2024-03-06T05:52:33;101003.91;;;9.74;100.00
40998;BME280;26740;45.944;12.480;2024-03-06T05:55:02;101001.72;;;9.76;100.00
40998;BME280;26740;45.944;12.480;2024-03-06T05:57:28;101006.03;;;9.84;100.00
40998;BME280;26740;45.944;12.480;2024-03-06T05:59:53;100998.13;;;9.64;100.00
40998;BME280;26740;45.944;12.480;2024-03-06T06:02:20;101001.13;;;9.74;100.00
40998;BME280;26740;45.944;12.480;2024-03-06T06:04:46;100998.06;;;9.76;100.00
40998;BME280;26740;45.944;12.480;2024-03-06T06:07:11;101003.28;;;9.72;100.00
40998;BME280;26740;45.944;12.480;2024-03-06T06:09:37;101003.41;;;9.65;100.00
40998;BME280;26740;45.944;12.480;2024-03-06T06:12:02;101012.94;;;9.58;100.00
40998;BME280;26740;45.944;12.480;2024-03-06T06:14:28;101011.34;;;9.74;100.00
40998;BME280;26740;45.944;12.480;2024-03-06T06:16:58;101004.50;;;9.76;100.00
40998;BME280;26740;45.944;12.480;2024-03-06T06:19:23;101011.09;;;9.75;100.00
40998;BME280;26740;45.944;12.480;2024-03-06T06:21:49;101013.28;;;9.73;100.00
40998;BME280;26740;45.944;12.480;2024-03-06T06:24:14;101012.56;;;9.66;100.00
40998;BME280;26740;45.944;12.480;2024-03-06T06:26:40;101012.06;;;9.81;100.00
40998;BME280;26740;45.944;12.480;2024-03-06T06:29:06;101018.47;;;9.70;100.00
40998;BME280;26740;45.944;12.480;2024-03-06T06:31:32;101023.91;;;9.76;100.00
40998;BME280;26740;45.944;12.480;2024-03-06T06:33:57;101028.47;;;9.82;100.00
40998;BME280;26740;45.944;12.480;2024-03-06T06:36:23;101018.34;;;9.76;100.00
40998;BME280;26740;45.944;12.480;2024-03-06T06:38:49;101026.06;;;9.74;100.00
40998;BME280;26740;45.944;12.480;2024-03-06T06:41:15;101021.13;;;9.76;100.00
40998;BME280;26740;45.944;12.480;2024-03-06T06:43:42;101020.06;;;9.65;100.00
40998;BME280;26740;45.944;12.480;2024-03-06T06:46:08;101035.59;;;9.66;100.00
40998;BME280;26740;45.944;12.480;2024-03-06T06:48:33;101034.03;;;9.71;100.00
40998;BME280;26740;45.944;12.480;2024-03-06T06:51:00;101032.47;;;9.75;100.00
40998;BME280;26740;45.944;12.480;2024-03-06T06:53:30;101030.88;;;9.79;100.00
40998;BME280;26740;45.944;12.480;2024-03-06T06:55:57;101033.41;;;9.68;100.00
40998;BME280;26740;45.944;12.480;2024-03-06T06:58:23;101039.19;;;9.67;100.00
40998;BME280;26740;45.944;12.480;2024-03-06T07:00:48;101042.59;;;9.69;100.00
40998;BME280;26740;45.944;12.480;2024-03-06T07:03:14;101048.13;;;9.69;100.00
40998;BME280;26740;45.944;12.480;2024-03-06T07:05:39;101048.03;;;9.64;100.00
40998;BME280;26740;45.944;12.480;2024-03-06T07:08:07;101056.34;;;9.64;100.00
40998;BME280;26740;45.944;12.480;2024-03-06T07:10:33;101053.56;;;9.64;100.00
40998;BME280;26740;45.944;12.480;2024-03-06T07:13:01;101063.06;;;9.68;100.00
40998;BME280;26740;45.944;12.480;2024-03-06T07:15:28;101068.28;;;9.76;100.00
40998;BME280;26740;45.944;12.480;2024-03-06T07:17:54;101060.19;;;9.86;100.00
40998;BME280;26740;45.944;12.480;2024-03-06T07:20:19;101074.25;;;9.97;100.00
40998;BME280;26740;45.944;12.480;2024-03-06T07:22:45;101072.31;;;10.09;100.00
40998;BME280;26740;45.944;12.480;2024-03-06T07:25:11;101073.00;;;10.28;100.00
40998;BME280;26740;45.944;12.480;2024-03-06T07:27:36;101074.09;;;10.39;100.00
40998;BME280;26740;45.944;12.480;2024-03-06T07:30:02;101075.94;;;10.33;100.00
40998;BME280;26740;45.944;12.480;2024-03-06T07:32:28;101070.84;;;10.42;100.00
40998;BME280;26740;45.944;12.480;2024-03-06T07:34:53;101079.13;;;10.54;100.00
40998;BME280;26740;45.944;12.480;2024-03-06T07:37:19;101086.91;;;10.40;100.00
40998;BME280;26740;45.944;12.480;2024-03-06T07:39:45;101085.47;;;10.25;100.00
40998;BME280;26740;45.944;12.480;2024-03-06T07:42:11;101084.75;;;10.18;100.00
40998;BME280;26740;45.944;12.480;2024-03-06T07:44:36;101081.88;;;10.13;100.00
40998;BME280;26740;45.944;12.480;2024-03-06T07:47:02;101090.19;;;10.13;100.00
40998;BME280;26740;45.944;12.480;2024-03-06T07:49:28;101097.16;;;10.04;100.00
40998;BME280;26740;45.944;12.480;2024-03-06T07:51:54;101094.28;;;10.11;100.00
40998;BME280;26740;45.944;12.480;2024-03-06T07:54:20;101101.75;;;10.10;100.00
40998;BME280;26740;45.944;12.480;2024-03-06T07:56:46;101099.56;;;10.24;100.00
40998;BME280;26740;45.944;12.480;2024-03-06T07:59:12;101089.91;;;10.27;100.00
40998;BME280;26740;45.944;12.480;2024-03-06T08:01:39;101101.88;;;10.27;100.00
40998;BME280;26740;45.944;12.480;2024-03-06T08:04:05;101110.78;;;10.29;100.00
40998;BME280;26740;45.944;12.480;2024-03-06T08:06:30;101108.00;;;10.29;100.00
40998;BME280;26740;45.944;12.480;2024-03-06T08:08:59;101106.81;;;10.37;100.00
40998;BME280;26740;45.944;12.480;2024-03-06T08:11:25;101102.69;;;10.28;100.00
40998;BME280;26740;45.944;12.480;2024-03-06T08:13:57;101110.19;;;10.27;100.00
40998;BME280;26740;45.944;12.480;2024-03-06T08:16:23;101110.41;;;10.37;100.00
40998;BME280;26740;45.944;12.480;2024-03-06T08:18:48;101121.53;;;10.37;100.00
40998;BME280;26740;45.944;12.480;2024-03-06T08:21:14;101124.56;;;10.24;100.00
40998;BME280;26740;45.944;12.480;2024-03-06T08:23:39;101129.25;;;10.35;100.00
40998;BME280;26740;45.944;12.480;2024-03-06T08:26:05;101144.34;;;10.28;100.00
40998;BME280;26740;45.944;12.480;2024-03-06T08:28:31;101136.25;;;10.26;100.00
40998;BME280;26740;45.944;12.480;2024-03-06T08:30:56;101141.75;;;10.61;100.00
40998;BME280;26740;45.944;12.480;2024-03-06T08:33:22;101143.59;;;10.56;100.00
40998;BME280;26740;45.944;12.480;2024-03-06T08:35:48;101148.13;;;10.74;100.00
40998;BME280;26740;45.944;12.480;2024-03-06T08:38:13;101148.84;;;10.69;100.00
40998;BME280;26740;45.944;12.480;2024-03-06T08:40:39;101148.38;;;10.60;100.00
40998;BME280;26740;45.944;12.480;2024-03-06T08:43:07;101156.31;;;10.80;100.00
40998;BME280;26740;45.944;12.480;2024-03-06T08:45:34;101147.09;;;10.92;100.00
40998;BME280;26740;45.944;12.480;2024-03-06T08:47:59;101156.31;;;10.80;100.00
40998;BME280;26740;45.944;12.480;2024-03-06T08:50:25;101158.75;;;10.77;100.00
40998;BME280;26740;45.944;12.480;2024-03-06T08:52:51;101161.28;;;10.78;100.00
40998;BME280;26740;45.944;12.480;2024-03-06T08:55:17;101175.91;;;10.74;100.00
40998;BME280;26740;45.944;12.480;2024-03-06T08:57:42;101171.03;;;10.81;100.00
40998;BME280;26740;45.944;12.480;2024-03-06T09:00:08;101171.28;;;10.79;100.00
40998;BME280;26740;45.944;12.480;2024-03-06T09:02:37;101183.69;;;10.89;100.00
40998;BME280;26740;45.944;12.480;2024-03-06T09:05:07;101181.31;;;10.80;100.00
40998;BME280;26740;45.944;12.480;2024-03-06T09:07:35;101169.84;;;10.77;100.00
40998;BME280;26740;45.944;12.480;2024-03-06T09:10:10;101171.53;;;10.78;100.00
40998;BME280;26740;45.944;12.480;2024-03-06T09:12:36;101176.72;;;10.86;100.00
40998;BME280;26740;45.944;12.480;2024-03-06T09:15:02;101175.09;;;10.90;100.00
40998;BME280;26740;45.944;12.480;2024-03-06T09:17:28;101174.13;;;10.96;100.00
40998;BME280;26740;45.944;12.480;2024-03-06T09:19:54;101177.13;;;11.07;100.00
40998;BME280;26740;45.944;12.480;2024-03-06T09:22:20;101173.81;;;11.10;100.00
40998;BME280;26740;45.944;12.480;2024-03-06T09:24:46;101183.75;;;11.06;100.00
40998;BME280;26740;45.944;12.480;2024-03-06T09:27:14;101184.16;;;10.97;100.00
40998;BME280;26740;45.944;12.480;2024-03-06T09:29:39;101184.34;;;10.79;100.00
40998;BME280;26740;45.944;12.480;2024-03-06T09:32:06;101177.13;;;10.66;100.00
40998;BME280;26740;45.944;12.480;2024-03-06T09:34:31;101182.56;;;10.61;100.00
40998;BME280;26740;45.944;12.480;2024-03-06T09:36:57;101182.94;;;10.65;100.00
40998;BME280;26740;45.944;12.480;2024-03-06T09:39:22;101184.00;;;10.75;100.00
40998;BME280;26740;45.944;12.480;2024-03-06T09:41:49;101183.25;;;10.80;100.00
40998;BME280;26740;45.944;12.480;2024-03-06T09:44:18;101186.91;;;10.97;100.00
40998;BME280;26740;45.944;12.480;2024-03-06T09:46:46;101189.22;;;11.00;100.00
40998;BME280;26740;45.944;12.480;2024-03-06T09:49:15;101187.34;;;10.89;100.00
40998;BME280;26740;45.944;12.480;2024-03-06T09:51:45;101189.22;;;11.00;100.00
40998;BME280;26740;45.944;12.480;2024-03-06T09:54:13;101194.19;;;10.98;100.00
40998;BME280;26740;45.944;12.480;2024-03-06T09:56:41;101197.41;;;10.78;100.00
40998;BME280;26740;45.944;12.480;2024-03-06T09:59:08;101198.22;;;10.79;100.00
40998;BME280;26740;45.944;12.480;2024-03-06T10:01:38;101200.88;;;10.86;100.00
40998;BME280;26740;45.944;12.480;2024-03-06T10:04:26;101199.66;;;10.81;100.00
40998;BME280;26740;45.944;12.480;2024-03-06T10:06:59;101197.94;;;10.92;100.00
40998;BME280;26740;45.944;12.480;2024-03-06T10:09:26;101194.09;;;10.81;100.00
40998;BME280;26740;45.944;12.480;2024-03-06T10:11:52;101195.88;;;10.99;100.00
40998;BME280;26740;45.944;12.480;2024-03-06T10:14:19;101201.50;;;11.05;100.00
40998;BME280;26740;45.944;12.480;2024-03-06T10:16:53;101195.69;;;11.18;100.00
40998;BME280;26740;45.944;12.480;2024-03-06T10:19:19;101200.09;;;11.31;100.00
40998;BME280;26740;45.944;12.480;2024-03-06T10:21:49;101204.47;;;11.27;100.00
40998;BME280;26740;45.944;12.480;2024-03-06T10:24:29;101212.06;;;11.31;100.00
40998;BME280;26740;45.944;12.480;2024-03-06T10:26:56;101201.28;;;11.35;100.00
40998;BME280;26740;45.944;12.480;2024-03-06T10:29:24;101201.69;;;11.27;100.00
40998;BME280;26740;45.944;12.480;2024-03-06T10:31:58;101199.59;;;11.34;100.00
40998;BME280;26740;45.944;12.480;2024-03-06T10:34:28;101200.41;;;11.63;100.00
40998;BME280;26740;45.944;12.480;2024-03-06T10:36:55;101198.53;;;11.52;100.00
40998;BME280;26740;45.944;12.480;2024-03-06T10:39:21;101199.50;;;11.74;100.00
40998;BME280;26740;45.944;12.480;2024-03-06T10:41:52;101198.22;;;11.65;100.00
40998;BME280;26740;45.944;12.480;2024-03-06T10:44:24;101193.84;;;11.86;100.00
40998;BME280;26740;45.944;12.480;2024-03-06T10:47:01;101183.97;;;11.62;100.00
40998;BME280;26740;45.944;12.480;2024-03-06T10:49:28;101180.50;;;11.54;100.00
40998;BME280;26740;45.944;12.480;2024-03-06T10:52:02;101193.16;;;11.62;100.00
40998;BME280;26740;45.944;12.480;2024-03-06T10:54:34;101195.72;;;11.81;100.00
40998;BME280;26740;45.944;12.480;2024-03-06T10:57:02;101197.69;;;11.97;100.00
40998;BME280;26740;45.944;12.480;2024-03-06T10:59:29;101199.09;;;12.17;100.00
40998;BME280;26740;45.944;12.480;2024-03-06T11:02:01;101193.19;;;11.79;100.00
40998;BME280;26740;45.944;12.480;2024-03-06T11:04:28;101198.66;;;11.91;100.00
40998;BME280;26740;45.944;12.480;2024-03-06T11:06:57;101202.09;;;11.64;100.00
40998;BME280;26740;45.944;12.480;2024-03-06T11:09:32;101197.63;;;11.63;100.00
40998;BME280;26740;45.944;12.480;2024-03-06T11:12:01;101197.72;;;11.68;100.00
40998;BME280;26740;45.944;12.480;2024-03-06T11:14:30;101209.69;;;11.69;100.00
40998;BME280;26740;45.944;12.480;2024-03-06T11:17:06;101203.72;;;11.77;100.00
40998;BME280;26740;45.944;12.480;2024-03-06T11:28:22;101191.38;;;11.56;100.00
40998;BME280;26740;45.944;12.480;2024-03-06T11:30:58;101210.66;;;11.46;100.00
40998;BME280;26740;45.944;12.480;2024-03-06T11:36:33;101203.06;;;11.41;100.00
40998;BME280;26740;45.944;12.480;2024-03-06T11:39:02;101204.50;;;11.44;100.00
40998;BME280;26740;45.944;12.480;2024-03-06T11:44:01;101193.97;;;11.46;100.00
40998;BME280;26740;45.944;12.480;2024-03-06T11:46:48;101192.16;;;11.85;100.00
40998;BME280;26740;45.944;12.480;2024-03-06T11:49:21;101182.94;;;11.97;100.00
40998;BME280;26740;45.944;12.480;2024-03-06T11:51:53;101186.22;;;11.93;100.00
40998;BME280;26740;45.944;12.480;2024-03-06T11:54:20;101187.47;;;12.03;100.00
40998;BME280;26740;45.944;12.480;2024-03-06T11:56:51;101169.88;;;12.36;100.00
40998;BME280;26740;45.944;12.480;2024-03-06T11:59:21;101167.78;;;12.65;100.00
40998;BME280;26740;45.944;12.480;2024-03-06T12:01:47;101163.25;;;12.86;100.00
40998;BME280;26740;45.944;12.480;2024-03-06T12:04:13;101163.16;;;12.76;100.00
40998;BME280;26740;45.944;12.480;2024-03-06T12:06:39;101156.59;;;12.87;100.00
40998;BME280;26740;45.944;12.480;2024-03-06T12:09:04;101157.44;;;13.10;100.00
40998;BME280;26740;45.944;12.480;2024-03-06T12:11:30;101159.94;;;13.12;100.00
40998;BME280;26740;45.944;12.480;2024-03-06T12:13:56;101158.38;;;13.43;100.00
40998;BME280;26740;45.944;12.480;2024-03-06T12:16:22;101157.81;;;12.97;100.00
40998;BME280;26740;45.944;12.480;2024-03-06T12:18:57;101150.38;;;13.57;100.00
40998;BME280;26740;45.944;12.480;2024-03-06T12:21:32;101150.34;;;13.84;100.00
40998;BME280;26740;45.944;12.480;2024-03-06T12:24:05;101154.22;;;13.83;100.00
40998;BME280;26740;45.944;12.480;2024-03-06T12:26:32;101151.28;;;14.00;100.00
40998;BME280;26740;45.944;12.480;2024-03-06T12:29:08;101150.28;;;14.16;100.00
40998;BME280;26740;45.944;12.480;2024-03-06T12:31:36;101147.38;;;13.63;100.00
40998;BME280;26740;45.944;12.480;2024-03-06T12:34:03;101147.78;;;13.77;100.00
40998;BME280;26740;45.944;12.480;2024-03-06T12:36:29;101143.03;;;13.78;100.00
40998;BME280;26740;45.944;12.480;2024-03-06T12:39:02;101145.25;;;13.76;100.00
40998;BME280;26740;45.944;12.480;2024-03-06T12:41:28;101146.06;;;13.71;100.00
40998;BME280;26740;45.944;12.480;2024-03-06T12:43:55;101144.75;;;13.84;100.00
40998;BME280;26740;45.944;12.480;2024-03-06T12:46:24;101145.00;;;14.20;100.00